Time;durP1;ratioP1;P1;durP2;ratioP2;P2;SDS_P1;SDS_P2;PMS_P1;PMS_P2;Temp;Humidity;BMP_temperature;BMP_pressure;BME280_temperature;BME280_humidity;BME280_pressure;Samples;Min_cycle;Max_cycle;Signal;HPM_P1;HPM_P2
2022/08/28 00:01:34;;;;;;;;;;;21.50;65.40;;;;;;5122978;27;19923;-44
2022/08/28 00:03:59;;;;;;;;;;;21.20;62.20;;;;;;5123330;27;20367;-45
2022/08/28 00:06:26;;;;;;;;;;;20.70;59.30;;;;;;5125280;27;19985;-45
2022/08/28 00:08:51;;;;;;;;;;;20.50;56.80;;;;;;5124902;27;20076;-46
2022/08/28 00:11:18;;;;;;;;;;;20.20;56.10;;;;;;5125127;27;19929;-47
2022/08/28 00:13:44;;;;;;;;;;;20.00;55.10;;;;;;5128231;27;19924;-48
2022/08/28 00:16:10;;;;;;;;;;;20.00;54.10;;;;;;5123080;27;20006;-46
2022/08/28 00:18:35;;;;;;;;;;;19.90;55.10;;;;;;5126977;27;19923;-46
2022/08/28 00:21:01;;;;;;;;;;;20.40;62.00;;;;;;5124843;27;20044;-45
2022/08/28 00:23:27;;;;;;;;;;;21.00;65.20;;;;;;5120959;27;19931;-49
2022/08/28 00:25:53;;;;;;;;;;;21.70;65.20;;;;;;5128620;27;20014;-47
2022/08/28 00:28:19;;;;;;;;;;;21.10;61.00;;;;;;5124667;27;19924;-47
2022/08/28 00:30:47;;;;;;;;;;;20.70;58.40;;;;;;5124862;27;19972;-45
2022/08/28 00:33:14;;;;;;;;;;;20.30;56.70;;;;;;5130056;27;19934;-48
2022/08/28 00:35:40;;;;;;;;;;;20.30;55.20;;;;;;5124573;27;19927;-47
2022/08/28 00:38:06;;;;;;;;;;;19.90;54.90;;;;;;5129473;27;20038;-52
2022/08/28 00:40:32;;;;;;;;;;;19.90;54.10;;;;;;5124501;27;20054;-48
2022/08/28 00:43:01;;;;;;;;;;;20.20;60.80;;;;;;5120090;27;19934;-47
2022/08/28 00:45:27;;;;;;;;;;;20.80;64.80;;;;;;5129813;27;20317;-47
2022/08/28 00:47:53;;;;;;;;;;;21.50;65.40;;;;;;5121969;27;19934;-46
2022/08/28 00:50:20;;;;;;;;;;;21.30;62.20;;;;;;5122040;27;19934;-47
2022/08/28 00:52:46;;;;;;;;;;;20.80;59.30;;;;;;5128282;27;19923;-49
2022/08/28 00:55:13;;;;;;;;;;;20.50;57.60;;;;;;5121854;27;20393;-46
2022/08/28 00:57:41;;;;;;;;;;;20.20;56.10;;;;;;5124334;27;20298;-53
2022/08/28 01:00:08;;;;;;;;;;;20.10;54.80;;;;;;5125860;27;20363;-47
2022/08/28 01:02:33;;;;;;;;;;;20.10;54.20;;;;;;5118043;27;20348;-47
2022/08/28 01:04:59;;;;;;;;;;;19.80;54.00;;;;;;5111238;27;19935;-47
2022/08/28 01:07:25;;;;;;;;;;;20.00;59.10;;;;;;5123773;27;20398;-50
2022/08/28 01:09:52;;;;;;;;;;;20.60;64.00;;;;;;5122118;27;19988;-47
2022/08/28 01:12:25;;;;;;;;;;;21.30;65.40;;;;;;5128324;27;19954;-46
2022/08/28 01:14:52;;;;;;;;;;;21.60;63.30;;;;;;5117651;27;19930;-45
2022/08/28 01:17:18;;;;;;;;;;;20.80;59.70;;;;;;5122949;27;19984;-50
2022/08/28 01:19:55;;;;;;;;;;;20.30;57.90;;;;;;5123391;27;19950;-46
2022/08/28 01:22:32;;;;;;;;;;;20.30;56.30;;;;;;5123450;27;20339;-46
2022/08/28 01:24:58;;;;;;;;;;;20.10;55.30;;;;;;5122317;27;20261;-46
2022/08/28 01:27:24;;;;;;;;;;;19.90;54.80;;;;;;5128940;27;20443;-47
2022/08/28 01:29:49;;;;;;;;;;;20.00;56.40;;;;;;5121442;27;19924;-47
2022/08/28 01:32:36;;;;;;;;;;;20.50;63.20;;;;;;5128814;27;20385;-46
2022/08/28 01:35:03;;;;;;;;;;;21.10;65.50;;;;;;5128363;27;20041;-48
2022/08/28 01:37:28;;;;;;;;;;;21.70;63.70;;;;;;5118496;27;19923;-48
2022/08/28 01:39:54;;;;;;;;;;;20.80;60.60;;;;;;5128506;27;19935;-46
2022/08/28 01:42:20;;;;;;;;;;;20.50;57.90;;;;;;5123163;27;20382;-45
2022/08/28 01:44:50;;;;;;;;;;;20.30;56.40;;;;;;5122957;27;19924;-45
2022/08/28 01:47:16;;;;;;;;;;;20.20;55.10;;;;;;5128599;27;19923;-46
2022/08/28 01:49:42;;;;;;;;;;;20.00;54.60;;;;;;5121027;27;20404;-47
2022/08/28 01:52:08;;;;;;;;;;;20.00;54.00;;;;;;5118400;27;19924;-45
2022/08/28 01:54:34;;;;;;;;;;;19.90;55.90;;;;;;5125224;27;20390;-46
2022/08/28 01:56:59;;;;;;;;;;;20.40;63.00;;;;;;5119349;27;19923;-47
2022/08/28 01:59:25;;;;;;;;;;;21.00;65.20;;;;;;5123328;27;20298;-57
2022/08/28 02:01:51;;;;;;;;;;;21.70;65.20;;;;;;5121694;27;19973;-46
2022/08/28 02:04:17;;;;;;;;;;;21.00;61.10;;;;;;5121820;27;19923;-46
2022/08/28 02:06:43;;;;;;;;;;;20.50;58.50;;;;;;5128303;27;19927;-46
2022/08/28 02:09:08;;;;;;;;;;;20.20;56.40;;;;;;5122576;27;20268;-45
2022/08/28 02:11:34;;;;;;;;;;;20.20;55.50;;;;;;5120275;27;20010;-47
2022/08/28 02:14:00;;;;;;;;;;;20.10;54.50;;;;;;5121260;27;20143;-47
2022/08/28 02:16:26;;;;;;;;;;;19.80;54.30;;;;;;5119872;27;19975;-47
2022/08/28 02:18:52;;;;;;;;;;;20.00;56.70;;;;;;5124631;27;19930;-56
2022/08/28 02:21:18;;;;;;;;;;;20.60;63.40;;;;;;5126282;27;20351;-48
2022/08/28 02:23:44;;;;;;;;;;;21.20;65.40;;;;;;5122258;27;19923;-47
2022/08/28 02:26:10;;;;;;;;;;;21.50;63.30;;;;;;5125771;27;19939;-47
2022/08/28 02:28:36;;;;;;;;;;;20.80;60.10;;;;;;5122357;27;20018;-46
2022/08/28 02:31:02;;;;;;;;;;;20.70;57.70;;;;;;5120474;27;20409;-48
2022/08/28 02:33:28;;;;;;;;;;;20.50;55.80;;;;;;5124169;27;19987;-46
2022/08/28 02:35:54;;;;;;;;;;;20.10;55.20;;;;;;5122154;27;19928;-52
2022/08/28 02:38:21;;;;;;;;;;;19.90;54.50;;;;;;5122129;27;19950;-47
2022/08/28 02:40:47;;;;;;;;;;;20.10;56.30;;;;;;5127683;27;19934;-46
2022/08/28 02:43:13;;;;;;;;;;;20.60;63.50;;;;;;5117492;27;19923;-46
2022/08/28 02:45:38;;;;;;;;;;;21.30;65.20;;;;;;5125241;27;19931;-49
2022/08/28 02:48:04;;;;;;;;;;;21.50;63.30;;;;;;5119803;27;19924;-45
2022/08/28 02:50:30;;;;;;;;;;;20.80;60.00;;;;;;5115463;27;20343;-52
2022/08/28 02:52:56;;;;;;;;;;;20.60;57.60;;;;;;5124103;27;19927;-45
2022/08/28 02:55:23;;;;;;;;;;;20.30;56.20;;;;;;5121855;27;20375;-46
2022/08/28 02:57:49;;;;;;;;;;;20.10;55.30;;;;;;5122290;27;20114;-46
2022/08/28 03:00:18;;;;;;;;;;;20.20;54.20;;;;;;5109055;27;19923;-46
2022/08/28 03:02:45;;;;;;;;;;;20.20;60.50;;;;;;5120087;27;19930;-46
2022/08/28 03:05:11;;;;;;;;;;;20.80;64.90;;;;;;5123949;27;19931;-49
2022/08/28 03:07:36;;;;;;;;;;;21.50;65.20;;;;;;5120692;27;20378;-49
2022/08/28 03:10:03;;;;;;;;;;;21.30;61.70;;;;;;5118173;27;19937;-45
2022/08/28 03:12:28;;;;;;;;;;;20.90;58.60;;;;;;5126978;27;19930;-45
2022/08/28 03:14:54;;;;;;;;;;;20.50;57.00;;;;;;5119554;27;19924;-46
2022/08/28 03:17:20;;;;;;;;;;;20.10;56.00;;;;;;5121338;27;20050;-45
2022/08/28 03:19:46;;;;;;;;;;;20.00;54.90;;;;;;5108811;28;20290;-50
2022/08/28 03:22:12;;;;;;;;;;;19.90;54.20;;;;;;5121630;27;19932;-48
2022/08/28 03:24:38;;;;;;;;;;;20.00;53.50;;;;;;5124443;28;19931;-54
2022/08/28 03:27:04;;;;;;;;;;;20.10;59.70;;;;;;5121144;28;20295;-45
2022/08/28 03:29:30;;;;;;;;;;;20.80;64.50;;;;;;5119663;28;19973;-45
2022/08/28 03:31:55;;;;;;;;;;;21.30;65.50;;;;;;5127081;28;19930;-45
2022/08/28 03:34:21;;;;;;;;;;;21.50;62.90;;;;;;5121085;28;20358;-48
2022/08/28 03:36:47;;;;;;;;;;;20.70;60.00;;;;;;5121645;28;19927;-46
2022/08/28 03:39:13;;;;;;;;;;;20.50;57.40;;;;;;5126923;28;19928;-46
2022/08/28 03:41:39;;;;;;;;;;;20.20;56.50;;;;;;5121386;28;19934;-47
2022/08/28 03:44:05;;;;;;;;;;;20.10;55.10;;;;;;5121875;28;19923;-55
2022/08/28 03:46:31;;;;;;;;;;;19.90;54.40;;;;;;5119558;28;19964;-45
2022/08/28 03:48:57;;;;;;;;;;;19.90;53.80;;;;;;5121419;28;19923;-48
2022/08/28 03:51:24;;;;;;;;;;;20.10;60.20;;;;;;5126799;28;19945;-46
2022/08/28 03:53:51;;;;;;;;;;;20.70;64.70;;;;;;5117044;28;19924;-46
2022/08/28 03:56:20;;;;;;;;;;;21.40;65.40;;;;;;5116611;28;19923;-46
2022/08/28 03:58:50;;;;;;;;;;;21.40;62.70;;;;;;5126820;28;20302;-47
2022/08/28 04:01:16;;;;;;;;;;;20.70;59.70;;;;;;5121174;28;19931;-45
2022/08/28 04:03:41;;;;;;;;;;;20.30;57.60;;;;;;5117466;28;20000;-47
2022/08/28 04:06:07;;;;;;;;;;;19.90;56.20;;;;;;5124573;28;19927;-47
2022/08/28 04:08:33;;;;;;;;;;;19.80;55.10;;;;;;5118897;28;20015;-46
2022/08/28 04:10:59;;;;;;;;;;;19.80;54.60;;;;;;5126713;28;19927;-49
2022/08/28 04:13:25;;;;;;;;;;;20.00;58.80;;;;;;5121557;28;20020;-50
2022/08/28 04:16:10;;;;;;;;;;;20.70;64.40;;;;;;5102592;28;19924;-47
2022/08/28 04:18:36;;;;;;;;;;;21.30;65.60;;;;;;5126614;28;19923;-46
2022/08/28 04:21:04;;;;;;;;;;;21.30;62.50;;;;;;5120045;28;19942;-56
2022/08/28 04:23:30;;;;;;;;;;;20.80;59.70;;;;;;5116812;28;20344;-47
2022/08/28 04:25:56;;;;;;;;;;;20.50;57.00;;;;;;5126446;27;19952;-46
2022/08/28 04:28:22;;;;;;;;;;;20.20;55.90;;;;;;5118767;27;20379;-45
2022/08/28 04:30:50;;;;;;;;;;;20.00;55.30;;;;;;5123783;27;20141;-47
2022/08/28 04:33:16;;;;;;;;;;;19.80;54.80;;;;;;5109362;27;20474;-45
2022/08/28 04:35:42;;;;;;;;;;;20.10;58.90;;;;;;5123066;27;20279;-46
2022/08/28 04:38:08;;;;;;;;;;;20.80;63.80;;;;;;5124626;27;19976;-52
2022/08/28 04:40:36;;;;;;;;;;;21.40;64.90;;;;;;5122456;27;21259;-47
2022/08/28 04:43:02;;;;;;;;;;;21.30;61.90;;;;;;5122759;27;19946;-45
2022/08/28 04:45:28;;;;;;;;;;;20.70;58.90;;;;;;5129907;27;19923;-45
2022/08/28 04:47:54;;;;;;;;;;;20.40;57.30;;;;;;5124459;27;20431;-46
2022/08/28 04:50:19;;;;;;;;;;;20.30;55.70;;;;;;5124370;27;20076;-46
2022/08/28 04:52:45;;;;;;;;;;;20.20;54.50;;;;;;5130004;27;20390;-47
2022/08/28 04:55:11;;;;;;;;;;;19.80;54.30;;;;;;5124304;27;19931;-46
2022/08/28 04:57:37;;;;;;;;;;;20.00;55.00;;;;;;5123800;27;19923;-50
2022/08/28 05:00:04;;;;;;;;;;;20.40;62.70;;;;;;5118560;27;19935;-48
2022/08/28 05:02:30;;;;;;;;;;;21.10;65.10;;;;;;5124101;27;19923;-46
2022/08/28 05:04:56;;;;;;;;;;;21.60;63.80;;;;;;5129616;27;19987;-46
2022/08/28 05:07:22;;;;;;;;;;;21.00;60.30;;;;;;5123977;27;19935;-47
2022/08/28 05:09:51;;;;;;;;;;;20.60;57.80;;;;;;5121718;27;19934;-46
2022/08/28 05:12:17;;;;;;;;;;;20.30;56.40;;;;;;5127221;27;19924;-46
2022/08/28 05:14:43;;;;;;;;;;;20.00;55.20;;;;;;5119257;27;20030;-47
2022/08/28 05:17:08;;;;;;;;;;;19.80;55.00;;;;;;5119931;27;19923;-45
2022/08/28 05:19:34;;;;;;;;;;;19.90;55.90;;;;;;5125822;27;19928;-46
2022/08/28 05:22:00;;;;;;;;;;;20.40;63.20;;;;;;5118986;27;19928;-47
2022/08/28 05:24:26;;;;;;;;;;;21.10;65.30;;;;;;5128965;27;19927;-44
2022/08/28 05:26:51;;;;;;;;;;;21.70;64.20;;;;;;5123662;27;19924;-48
2022/08/28 05:29:17;;;;;;;;;;;20.90;60.70;;;;;;5123651;27;19923;-47
2022/08/28 05:31:43;;;;;;;;;;;20.50;58.10;;;;;;5129033;27;19927;-47
2022/08/28 05:34:09;;;;;;;;;;;20.30;56.50;;;;;;5123370;27;19939;-47
2022/08/28 05:36:35;;;;;;;;;;;20.00;55.20;;;;;;5118467;27;20237;-46
2022/08/28 05:39:02;;;;;;;;;;;19.90;55.00;;;;;;5126010;27;19931;-45
2022/08/28 05:41:31;;;;;;;;;;;19.80;53.80;;;;;;5123377;27;21015;-45
2022/08/28 05:44:00;;;;;;;;;;;20.20;61.10;;;;;;5127287;27;19923;-56
2022/08/28 05:46:27;;;;;;;;;;;20.80;64.60;;;;;;5126451;27;19923;-46
2022/08/28 05:48:53;;;;;;;;;;;21.50;65.00;;;;;;5123057;27;19923;-51
2022/08/28 05:51:19;;;;;;;;;;;21.30;62.00;;;;;;5124346;27;19952;-47
2022/08/28 05:53:45;;;;;;;;;;;20.70;58.90;;;;;;5115027;27;19972;-45
2022/08/28 05:56:15;;;;;;;;;;;20.40;56.90;;;;;;5117571;27;19928;-46
2022/08/28 05:58:41;;;;;;;;;;;20.10;56.00;;;;;;5128288;27;19927;-45
2022/08/28 06:01:08;;;;;;;;;;;20.00;54.70;;;;;;5123028;27;20271;-46
2022/08/28 06:03:33;;;;;;;;;;;19.90;55.80;;;;;;5123048;27;19981;-48
2022/08/28 06:05:59;;;;;;;;;;;20.50;62.60;;;;;;5128150;27;19927;-47
2022/08/28 06:08:26;;;;;;;;;;;21.00;65.50;;;;;;5122920;27;20042;-47
2022/08/28 06:10:52;;;;;;;;;;;21.60;64.40;;;;;;5128211;27;19937;-45
2022/08/28 06:13:17;;;;;;;;;;;20.90;60.80;;;;;;5117926;27;19924;-45
2022/08/28 06:15:43;;;;;;;;;;;20.40;58.40;;;;;;5122315;27;19931;-46
2022/08/28 06:18:09;;;;;;;;;;;20.30;56.50;;;;;;5128082;27;19930;-45
2022/08/28 06:20:41;;;;;;;;;;;20.10;55.20;;;;;;5120689;27;19996;-46
2022/08/28 06:23:10;;;;;;;;;;;19.90;54.40;;;;;;5120485;27;20326;-46
2022/08/28 06:25:40;;;;;;;;;;;20.00;58.60;;;;;;5125751;27;19923;-45
2022/08/28 06:28:06;;;;;;;;;;;20.60;64.30;;;;;;5122577;27;19923;-45
2022/08/28 06:30:36;;;;;;;;;;;21.30;65.20;;;;;;5119228;27;19964;-55
2022/08/28 06:33:02;;;;;;;;;;;21.50;62.70;;;;;;5121019;27;19923;-45
2022/08/28 06:35:30;;;;;;;;;;;20.80;59.20;;;;;;5122227;27;20398;-45
2022/08/28 06:37:56;;;;;;;;;;;20.30;57.40;;;;;;5127720;27;20434;-45
2022/08/28 06:40:22;;;;;;;;;;;20.20;55.40;;;;;;5122298;27;19924;-45
2022/08/28 06:42:47;;;;;;;;;;;19.90;54.70;;;;;;5121932;27;19950;-47
2022/08/28 06:45:13;;;;;;;;;;;19.70;54.50;;;;;;5127609;27;19927;-46
2022/08/28 06:47:39;;;;;;;;;;;20.00;58.30;;;;;;5121782;27;19953;-49
2022/08/28 06:50:05;;;;;;;;;;;20.60;63.60;;;;;;5116719;27;20118;-46
2022/08/28 06:52:31;;;;;;;;;;;21.20;65.20;;;;;;5125171;27;20416;-44
2022/08/28 06:54:56;;;;;;;;;;;21.50;63.00;;;;;;5117308;27;20379;-46
2022/08/28 06:57:24;;;;;;;;;;;20.90;59.80;;;;;;5127455;27;19924;-46
2022/08/28 06:59:53;;;;;;;;;;;20.50;57.40;;;;;;5121734;27;19923;-46
2022/08/28 07:02:20;;;;;;;;;;;20.20;56.30;;;;;;5121480;27;19941;-46
2022/08/28 07:04:49;;;;;;;;;;;19.90;55.20;;;;;;5127343;27;19928;-46
2022/08/28 07:07:15;;;;;;;;;;;19.90;54.00;;;;;;5118420;27;20375;-46
2022/08/28 07:09:41;;;;;;;;;;;20.00;59.10;;;;;;5101568;27;20845;-48
2022/08/28 07:12:07;;;;;;;;;;;20.60;64.20;;;;;;5127136;27;20321;-47
2022/08/28 07:14:33;;;;;;;;;;;21.30;64.80;;;;;;5119099;27;19923;-45
2022/08/28 07:16:59;;;;;;;;;;;21.40;62.30;;;;;;5103832;27;20168;-55
2022/08/28 07:19:25;;;;;;;;;;;20.80;59.40;;;;;;5126743;27;19923;-46
2022/08/28 07:21:51;;;;;;;;;;;20.30;57.20;;;;;;5121778;27;19946;-45
2022/08/28 07:24:17;;;;;;;;;;;20.30;55.80;;;;;;5126354;28;20018;-45
2022/08/28 07:26:43;;;;;;;;;;;20.00;54.70;;;;;;5116539;28;19923;-46
2022/08/28 07:29:09;;;;;;;;;;;19.90;54.10;;;;;;5120941;28;20334;-48
2022/08/28 07:31:35;;;;;;;;;;;19.90;57.40;;;;;;5126797;28;20051;-45
2022/08/28 07:34:01;;;;;;;;;;;20.60;63.20;;;;;;5121123;28;19923;-47
2022/08/28 07:36:26;;;;;;;;;;;21.20;65.00;;;;;;5121556;28;19935;-45
2022/08/28 07:38:53;;;;;;;;;;;21.60;63.40;;;;;;5127020;28;19923;-45
2022/08/28 07:41:20;;;;;;;;;;;20.80;59.80;;;;;;5121672;28;19927;-45
2022/08/28 07:46:31;;;;;;;;;;;20.30;56.20;;;;;;5122325;28;19930;-45
2022/08/28 07:49:00;;;;;;;;;;;20.20;55.00;;;;;;5121328;28;19963;-45
2022/08/28 07:51:26;;;;;;;;;;;20.00;54.10;;;;;;5126936;28;19927;-47
2022/08/28 07:53:52;;;;;;;;;;;20.00;57.60;;;;;;5121370;28;19923;-46
2022/08/28 07:56:18;;;;;;;;;;;20.70;63.20;;;;;;5119071;28;20001;-47
2022/08/28 07:58:44;;;;;;;;;;;21.30;64.60;;;;;;5124469;28;20321;-47
2022/08/28 08:01:10;;;;;;;;;;;21.50;62.20;;;;;;5117103;27;20017;-43
2022/08/28 08:03:36;;;;;;;;;;;20.80;59.70;;;;;;5119911;27;19923;-47
2022/08/28 08:06:02;;;;;;;;;;;20.40;57.00;;;;;;5130198;27;20276;-47
2022/08/28 08:08:29;;;;;;;;;;;20.20;56.00;;;;;;5125202;27;19941;-47
2022/08/28 08:10:55;;;;;;;;;;;20.00;55.20;;;;;;5130543;27;19940;-47
2022/08/28 08:13:21;;;;;;;;;;;20.00;54.40;;;;;;5125047;27;19972;-46
2022/08/28 08:15:47;;;;;;;;;;;20.00;55.40;;;;;;5124453;27;20538;-47
2022/08/28 08:18:13;;;;;;;;;;;20.50;62.70;;;;;;5130484;27;19923;-48
2022/08/28 08:20:38;;;;;;;;;;;21.10;64.60;;;;;;5121787;27;19970;-44
2022/08/28 08:23:04;;;;;;;;;;;21.70;63.60;;;;;;5122993;27;19958;-46
2022/08/28 08:25:30;;;;;;;;;;;21.10;60.20;;;;;;5110552;27;20351;-45
2022/08/28 08:27:56;;;;;;;;;;;20.70;58.30;;;;;;5121864;27;19938;-46
2022/08/28 08:30:21;;;;;;;;;;;20.30;56.40;;;;;;5127372;27;20310;-55
2022/08/28 08:32:47;;;;;;;;;;;20.00;55.30;;;;;;5123404;27;19931;-46
2022/08/28 08:35:13;;;;;;;;;;;19.90;54.60;;;;;;5124563;27;19923;-48
2022/08/28 08:37:39;;;;;;;;;;;19.90;56.90;;;;;;5129590;27;19928;-47
2022/08/28 08:40:05;;;;;;;;;;;20.40;63.40;;;;;;5115291;27;19946;-51
2022/08/28 08:42:31;;;;;;;;;;;21.10;65.20;;;;;;5124177;27;19923;-46
2022/08/28 08:44:57;;;;;;;;;;;21.70;63.20;;;;;;5129785;27;19923;-48
2022/08/28 08:47:26;;;;;;;;;;;20.90;60.20;;;;;;5124410;27;19923;-45
2022/08/28 08:49:59;;;;;;;;;;;20.70;57.40;;;;;;5123216;27;19967;-55
2022/08/28 08:52:43;;;;;;;;;;;20.40;56.00;;;;;;5128727;27;19923;-46
2022/08/28 08:55:18;;;;;;;;;;;20.00;55.60;;;;;;5124135;27;19934;-48
2022/08/28 08:57:44;;;;;;;;;;;20.00;54.20;;;;;;5118399;27;19935;-49
2022/08/28 09:00:10;;;;;;;;;;;19.80;54.00;;;;;;5127843;27;20382;-47
2022/08/28 09:02:37;;;;;;;;;;;20.20;60.70;;;;;;5124195;27;19930;-46
2022/08/28 09:05:04;;;;;;;;;;;20.80;64.60;;;;;;5128374;27;20291;-46
2022/08/28 09:07:36;;;;;;;;;;;21.50;64.90;;;;;;5123789;27;20083;-45
2022/08/28 09:10:02;;;;;;;;;;;21.30;61.40;;;;;;5121735;27;19923;-46
2022/08/28 09:12:29;;;;;;;;;;;20.60;58.60;;;;;;5129364;27;20380;-45
2022/08/28 09:15:06;;;;;;;;;;;20.30;57.20;;;;;;5123409;27;19929;-48
2022/08/28 09:17:37;;;;;;;;;;;20.10;55.60;;;;;;5120270;27;19927;-46
2022/08/28 09:20:04;;;;;;;;;;;20.00;54.70;;;;;;5129243;27;20359;-46
2022/08/28 09:22:29;;;;;;;;;;;19.80;54.00;;;;;;5124047;27;19930;-48
2022/08/28 09:24:55;;;;;;;;;;;20.30;61.20;;;;;;5123892;27;20403;-47
2022/08/28 09:27:25;;;;;;;;;;;20.90;64.60;;;;;;5129363;27;19990;-45
2022/08/28 09:29:56;;;;;;;;;;;21.60;64.40;;;;;;5119990;27;19931;-45
2022/08/28 09:32:22;;;;;;;;;;;21.20;61.30;;;;;;5124643;27;19927;-55
2022/08/28 09:35:06;;;;;;;;;;;20.80;58.80;;;;;;5121622;27;20424;-44
2022/08/28 09:37:32;;;;;;;;;;;20.50;56.70;;;;;;5123270;27;19986;-46
2022/08/28 09:40:13;;;;;;;;;;;20.30;55.40;;;;;;5124522;27;19923;-45
2022/08/28 09:45:23;;;;;;;;;;;19.70;54.50;;;;;;5123542;27;19923;-47
2022/08/28 09:47:50;;;;;;;;;;;20.00;59.70;;;;;;5125683;27;19923;-52
2022/08/28 09:50:21;;;;;;;;;;;20.70;64.10;;;;;;5125540;27;20374;-47
2022/08/28 09:52:47;;;;;;;;;;;21.30;65.00;;;;;;5120008;27;19975;-45
2022/08/28 09:55:24;;;;;;;;;;;21.50;62.40;;;;;;5127010;27;20395;-45
2022/08/28 09:57:50;;;;;;;;;;;20.80;59.50;;;;;;5121866;27;20026;-47
2022/08/28 10:00:16;;;;;;;;;;;20.50;57.40;;;;;;5120525;27;19923;-47
2022/08/28 10:02:44;;;;;;;;;;;20.30;55.90;;;;;;5128428;27;19930;-48
2022/08/28 10:05:14;;;;;;;;;;;20.20;54.70;;;;;;5116327;27;19923;-46
2022/08/28 10:07:48;;;;;;;;;;;19.90;54.40;;;;;;5121512;27;19934;-49
2022/08/28 10:10:34;;;;;;;;;;;20.00;56.40;;;;;;5123357;27;19928;-50
2022/08/28 10:13:09;;;;;;;;;;;20.60;63.50;;;;;;5119290;27;19927;-46
2022/08/28 10:15:53;;;;;;;;;;;21.30;64.90;;;;;;5122599;27;19933;-46
2022/08/28 10:18:24;;;;;;;;;;;21.60;62.60;;;;;;5128274;27;19931;-48
2022/08/28 10:20:53;;;;;;;;;;;20.80;59.00;;;;;;5122537;27;19923;-46
2022/08/28 10:23:42;;;;;;;;;;;20.50;57.40;;;;;;5122490;27;20367;-45
2022/08/28 10:26:07;;;;;;;;;;;20.30;56.00;;;;;;5126432;27;20393;-45
2022/08/28 10:28:41;;;;;;;;;;;20.20;54.90;;;;;;5120829;27;19927;-46
2022/08/28 10:31:11;;;;;;;;;;;19.90;54.30;;;;;;5117715;27;20340;-46
2022/08/28 10:33:43;;;;;;;;;;;20.00;56.40;;;;;;5127789;27;20455;-45
2022/08/28 10:36:18;;;;;;;;;;;20.60;62.70;;;;;;5122498;27;20018;-45
2022/08/28 10:38:46;;;;;;;;;;;21.30;64.50;;;;;;5121309;27;19934;-46
2022/08/28 10:41:16;;;;;;;;;;;21.40;62.10;;;;;;5127774;27;20305;-46
2022/08/28 10:43:48;;;;;;;;;;;20.80;59.10;;;;;;5120884;27;19924;-46
2022/08/28 10:46:15;;;;;;;;;;;20.30;57.20;;;;;;5118817;27;19927;-46
2022/08/28 10:48:43;;;;;;;;;;;20.30;55.90;;;;;;5121193;27;20194;-47
2022/08/28 10:51:16;;;;;;;;;;;20.10;55.20;;;;;;5116792;27;20225;-46
2022/08/28 10:53:48;;;;;;;;;;;20.20;54.30;;;;;;5103017;27;20493;-54
2022/08/28 10:56:15;;;;;;;;;;;19.90;54.20;;;;;;5127213;27;20396;-47
2022/08/28 10:58:41;;;;;;;;;;;20.20;58.70;;;;;;5120411;27;20276;-46
2022/08/28 11:01:08;;;;;;;;;;;20.80;63.30;;;;;;5125998;27;19953;-46
2022/08/28 11:03:46;;;;;;;;;;;21.40;63.70;;;;;;5119981;27;20021;-50
2022/08/28 11:06:25;;;;;;;;;;;21.60;61.50;;;;;;5118122;27;19970;-48
2022/08/28 11:08:55;;;;;;;;;;;20.80;59.00;;;;;;5125504;27;20425;-50
2022/08/28 11:11:40;;;;;;;;;;;20.50;57.00;;;;;;5121829;27;19929;-47
2022/08/28 11:14:06;;;;;;;;;;;20.20;56.00;;;;;;5121717;27;19971;-46
2022/08/28 11:16:32;;;;;;;;;;;20.30;54.80;;;;;;5127320;27;20389;-46
2022/08/28 11:18:57;;;;;;;;;;;20.00;54.80;;;;;;5121796;27;19973;-48
2022/08/28 11:21:27;;;;;;;;;;;20.10;53.90;;;;;;5121451;27;19928;-46
2022/08/28 11:23:56;;;;;;;;;;;20.20;56.50;;;;;;5122336;27;19923;-54
2022/08/28 11:26:23;;;;;;;;;;;20.70;62.70;;;;;;5116002;27;20044;-45
2022/08/28 11:28:49;;;;;;;;;;;21.30;63.90;;;;;;5103185;28;20014;-45
2022/08/28 11:31:15;;;;;;;;;;;21.60;61.90;;;;;;5124517;28;19946;-46
2022/08/28 11:33:41;;;;;;;;;;;20.90;59.20;;;;;;5119042;28;20296;-44
2022/08/28 11:36:10;;;;;;;;;;;20.60;57.10;;;;;;5127178;27;20376;-46
2022/08/28 11:38:39;;;;;;;;;;;20.50;55.80;;;;;;5124678;27;20342;-49
2022/08/28 11:41:09;;;;;;;;;;;20.20;55.10;;;;;;5124221;27;20330;-50
2022/08/28 11:43:35;;;;;;;;;;;20.00;54.40;;;;;;5095774;27;20034;-46
2022/08/28 11:46:01;;;;;;;;;;;20.00;53.80;;;;;;5124802;27;19972;-47
2022/08/28 11:48:36;;;;;;;;;;;20.30;60.00;;;;;;5123196;27;19927;-44
2022/08/28 11:51:06;;;;;;;;;;;21.00;63.50;;;;;;5131031;27;19938;-45
2022/08/28 11:53:50;;;;;;;;;;;21.70;63.40;;;;;;5125328;27;20511;-46
2022/08/28 11:56:32;;;;;;;;;;;21.20;60.20;;;;;;5125532;27;19973;-45
2022/08/28 11:59:09;;;;;;;;;;;20.70;57.50;;;;;;5128816;27;20295;-49
2022/08/28 12:01:35;;;;;;;;;;;20.30;56.00;;;;;;5121645;27;19972;-46
2022/08/28 12:04:12;;;;;;;;;;;20.20;55.00;;;;;;5122435;27;19931;-46
2022/08/28 12:06:43;;;;;;;;;;;20.10;54.30;;;;;;5127304;27;19927;-46
2022/08/28 12:09:24;;;;;;;;;;;19.90;54.10;;;;;;5125198;27;19927;-47
2022/08/28 12:12:09;;;;;;;;;;;20.00;56.20;;;;;;5120942;27;20030;-47
2022/08/28 12:14:38;;;;;;;;;;;20.60;62.60;;;;;;5130393;27;19924;-47
2022/08/28 12:17:13;;;;;;;;;;;21.40;63.20;;;;;;5125111;27;20379;-46
2022/08/28 12:19:43;;;;;;;;;;;21.50;60.70;;;;;;5119505;27;19924;-47
2022/08/28 12:22:10;;;;;;;;;;;20.80;58.20;;;;;;5128548;27;20482;-45
2022/08/28 12:24:35;;;;;;;;;;;20.80;56.10;;;;;;5122490;27;20306;-46
2022/08/28 12:27:01;;;;;;;;;;;20.30;55.50;;;;;;5122132;27;19931;-45
2022/08/28 12:29:31;;;;;;;;;;;20.30;54.50;;;;;;5128859;27;20295;-47
2022/08/28 12:32:12;;;;;;;;;;;20.10;54.00;;;;;;5124680;27;20310;-47
2022/08/28 12:34:48;;;;;;;;;;;20.00;55.60;;;;;;5123519;27;19987;-49
2022/08/28 12:37:27;;;;;;;;;;;20.60;62.10;;;;;;5127132;27;19927;-45
2022/08/28 12:39:53;;;;;;;;;;;21.30;63.50;;;;;;5122117;27;19929;-47
2022/08/28 12:42:19;;;;;;;;;;;21.60;60.80;;;;;;5124358;27;19927;-45
2022/08/28 12:44:45;;;;;;;;;;;20.80;58.30;;;;;;5128667;27;19973;-46
2022/08/28 12:47:15;;;;;;;;;;;20.50;56.50;;;;;;5121756;27;19927;-45
2022/08/28 12:49:41;;;;;;;;;;;20.30;55.70;;;;;;5128888;27;19923;-49
2022/08/28 12:52:17;;;;;;;;;;;20.20;54.70;;;;;;5123300;27;19929;-47
2022/08/28 12:54:46;;;;;;;;;;;20.10;54.00;;;;;;5124206;27;19928;-47
2022/08/28 12:57:13;;;;;;;;;;;19.80;54.70;;;;;;5124691;27;19930;-48
2022/08/28 12:59:43;;;;;;;;;;;20.40;61.20;;;;;;5123749;27;19927;-46
2022/08/28 13:02:25;;;;;;;;;;;21.10;63.40;;;;;;5124128;27;19940;-48
2022/08/28 13:04:53;;;;;;;;;;;21.80;61.90;;;;;;5129552;27;20006;-47
2022/08/28 13:07:22;;;;;;;;;;;21.00;58.90;;;;;;5122471;27;19927;-45
2022/08/28 13:09:50;;;;;;;;;;;20.80;56.60;;;;;;5122555;27;20014;-49
2022/08/28 13:12:21;;;;;;;;;;;20.30;55.70;;;;;;5128323;27;19930;-46
2022/08/28 13:14:46;;;;;;;;;;;20.30;54.30;;;;;;5120384;27;20305;-46
2022/08/28 13:17:13;;;;;;;;;;;20.20;53.50;;;;;;5119675;27;20338;-45
2022/08/28 13:19:39;;;;;;;;;;;20.10;53.50;;;;;;5127929;27;19941;-47
2022/08/28 13:22:07;;;;;;;;;;;20.00;53.90;;;;;;5123794;27;19927;-49
2022/08/28 13:24:33;;;;;;;;;;;20.40;60.70;;;;;;5128923;27;19933;-57
2022/08/28 13:27:01;;;;;;;;;;;21.20;63.00;;;;;;5124604;27;19923;-45
2022/08/28 13:29:27;;;;;;;;;;;21.80;62.40;;;;;;5123787;27;19923;-45
2022/08/28 13:31:54;;;;;;;;;;;21.10;59.00;;;;;;5128918;27;19934;-50
2022/08/28 13:34:23;;;;;;;;;;;20.90;56.80;;;;;;5118456;27;19952;-46
2022/08/28 13:36:51;;;;;;;;;;;20.40;55.70;;;;;;5123304;27;19929;-46
2022/08/28 13:39:17;;;;;;;;;;;20.30;54.90;;;;;;5124983;27;19923;-45
2022/08/28 13:41:43;;;;;;;;;;;20.20;54.20;;;;;;5123218;27;19966;-45
2022/08/28 13:44:17;;;;;;;;;;;19.80;54.20;;;;;;5123446;27;19927;-46
2022/08/28 13:46:43;;;;;;;;;;;20.50;60.70;;;;;;5125387;27;19924;-47
2022/08/28 13:49:08;;;;;;;;;;;21.30;62.70;;;;;;5123270;27;19935;-46
2022/08/28 13:51:35;;;;;;;;;;;21.70;61.10;;;;;;5125409;27;19924;-51
2022/08/28 13:54:01;;;;;;;;;;;21.00;58.50;;;;;;5119088;27;19988;-45
2022/08/28 13:56:26;;;;;;;;;;;20.70;56.40;;;;;;5123115;27;19931;-45
2022/08/28 13:58:55;;;;;;;;;;;20.40;55.40;;;;;;5127690;27;19931;-46
2022/08/28 14:01:21;;;;;;;;;;;20.30;54.60;;;;;;5122921;27;20412;-46
2022/08/28 14:03:46;;;;;;;;;;;20.10;54.60;;;;;;5120491;27;20146;-45
2022/08/28 14:06:13;;;;;;;;;;;20.10;53.50;;;;;;5125433;27;19931;-47
2022/08/28 14:08:39;;;;;;;;;;;20.00;56.90;;;;;;5122830;27;19968;-46
2022/08/28 14:11:06;;;;;;;;;;;20.70;62.00;;;;;;5120680;27;19923;-56
2022/08/28 14:13:31;;;;;;;;;;;21.40;62.50;;;;;;5124385;27;20391;-46
2022/08/28 14:15:57;;;;;;;;;;;21.50;59.50;;;;;;5122798;27;20018;-45
2022/08/28 14:18:23;;;;;;;;;;;20.80;57.90;;;;;;5128314;27;20290;-45
2022/08/28 14:20:49;;;;;;;;;;;20.70;56.00;;;;;;5119517;27;19923;-46
2022/08/28 14:23:15;;;;;;;;;;;20.50;54.90;;;;;;5122605;27;19976;-45
2022/08/28 14:25:42;;;;;;;;;;;20.30;54.10;;;;;;5128030;27;19923;-46